Time;durP1;ratioP1;P1;durP2;ratioP2;P2;SDS_P1;SDS_P2;PMS_P1;PMS_P2;Temp;Humidity;BMP_temperature;BMP_pressure;BME280_temperature;BME280_humidity;BME280_pressure;Samples;Min_cycle;Max_cycle;Signal;HPM_P1;HPM_P2
2021/11/19 00:00:54;;;;;;;;;;;;;;;;;;1875263;28;7339;-65
2021/11/19 00:01:56;;;;;;;;;;;;;;;;;;1872982;28;7049;-65
2021/11/19 00:02:53;;;;;;;;;;;;;;;;;;1880738;28;7097;-65
2021/11/19 00:03:51;;;;;;;;;;;;;;;;;;1882066;28;7088;-65
2021/11/19 00:04:48;;;;;;;;;;;;;;;;;;1883767;28;7109;-65
2021/11/19 00:05:47;;;;;;;;;;;;;;;;;;1883554;28;7022;-64
2021/11/19 00:06:45;;;;;;;;;;;;;;;;;;1882686;28;7022;-65
2021/11/19 00:07:42;;;;;;;;;;;;;;;;;;1883551;28;7014;-64
2021/11/19 00:08:41;;;;;;;;;;;;;;;;;;1883654;28;7135;-65
2021/11/19 00:09:39;;;;;;;;;;;;;;;;;;1883709;28;7010;-63
2021/11/19 00:10:37;;;;;;;;;;;;;;;;;;1882723;28;7014;-66
2021/11/19 00:11:37;;;;;;;;;;;;;;;;;;1883657;28;7009;-64
2021/11/19 00:12:35;;;;;;;;;;;;;;;;;;1883105;28;7353;-66
2021/11/19 00:13:32;;;;;;;;;;;;;;;;;;1883500;28;7025;-65
2021/11/19 00:14:30;;;;;;;;;;;;;;;;;;1883994;28;7014;-64
2021/11/19 00:15:27;;;;;;;;;;;;;;;;;;1883440;28;7010;-65
2021/11/19 00:16:27;;;;;;;;;;;;;;;;;;1884121;28;7010;-65
2021/11/19 00:17:24;;;;;;;;;;;;;;;;;;1884023;28;7444;-65
2021/11/19 00:18:23;;;;;;;;;;;;;;;;;;1882915;28;7002;-65
2021/11/19 00:19:21;;;;;;;;;;;;;;;;;;1885769;28;7320;-65
2021/11/19 00:20:20;;;;;;;;;;;;;;;;;;1883112;28;7560;-64
2021/11/19 00:21:17;;;;;;;;;;;;;;;;;;1883933;28;7002;-64
2021/11/19 00:22:17;;;;;;;;;;;;;;;;;;1884845;28;8051;-65
2021/11/19 00:23:16;;;;;;;;;;;;;;;;;;1885051;28;7208;-65
2021/11/19 00:24:14;;;;;;;;;;;;;;;;;;1876513;28;7278;-64
2021/11/19 00:25:12;;;;;;;;;;;;;;;;;;1875954;28;7014;-65
2021/11/19 00:26:10;;;;;;;;;;;;;;;;;;1875957;28;7010;-65
2021/11/19 00:27:10;;;;;;;;;;;;;;;;;;1876345;28;7001;-65
2021/11/19 00:28:08;;;;;;;;;;;;;;;;;;1875774;28;8010;-65
2021/11/19 00:29:07;;;;;;;;;;;;;;;;;;1875313;28;7109;-65
2021/11/19 00:30:09;;;;;;;;;;;;;;;;;;1868344;29;7097;-65
2021/11/19 00:31:07;;;;;;;;;;;;;;;;;;1867006;29;7047;-64
2021/11/19 00:32:05;;;;;;;;;;;;;;;;;;1874959;28;7037;-64
2021/11/19 00:33:02;;;;;;;;;;;;;;;;;;1875509;28;7014;-65
2021/11/19 00:34:00;;;;;;;;;;;;;;;;;;1875569;28;7093;-65
2021/11/19 00:34:57;;;;;;;;;;;;;;;;;;1876201;28;7349;-64
2021/11/19 00:35:55;;;;;;;;;;;;;;;;;;1874801;28;7014;-65
2021/11/19 00:36:57;;;;;;;;;;;;;;;;;;1874810;28;7125;-64
2021/11/19 00:37:56;;;;;;;;;;;;;;;;;;1875417;28;7010;-64
2021/11/19 00:38:56;;;;;;;;;;;;;;;;;;1874002;28;7006;-65
2021/11/19 00:39:53;;;;;;;;;;;;;;;;;;1875672;28;7006;-65
2021/11/19 00:40:53;;;;;;;;;;;;;;;;;;1876683;28;7022;-65
2021/11/19 00:41:52;;;;;;;;;;;;;;;;;;1875101;28;7090;-64
2021/11/19 00:42:49;;;;;;;;;;;;;;;;;;1874545;28;7093;-65
2021/11/19 00:43:47;;;;;;;;;;;;;;;;;;1875781;28;8054;-63
2021/11/19 00:44:44;;;;;;;;;;;;;;;;;;1875026;28;7100;-64
2021/11/19 00:45:42;;;;;;;;;;;;;;;;;;1876544;28;7189;-65
2021/11/19 00:46:40;;;;;;;;;;;;;;;;;;1874734;28;7147;-65
2021/11/19 00:47:38;;;;;;;;;;;;;;;;;;1870583;28;7010;-64
2021/11/19 00:48:36;;;;;;;;;;;;;;;;;;1869908;28;7010;-65
2021/11/19 00:49:35;;;;;;;;;;;;;;;;;;1868031;29;7117;-65
2021/11/19 00:50:36;;;;;;;;;;;;;;;;;;1868366;29;7010;-64
2021/11/19 00:51:37;;;;;;;;;;;;;;;;;;1874612;28;7118;-64
2021/11/19 00:52:34;;;;;;;;;;;;;;;;;;1876349;28;7005;-65
2021/11/19 00:53:32;;;;;;;;;;;;;;;;;;1875152;28;7467;-65
2021/11/19 00:54:29;;;;;;;;;;;;;;;;;;1875588;28;7097;-65
2021/11/19 00:55:27;;;;;;;;;;;;;;;;;;1875397;28;7014;-65
2021/11/19 00:56:31;;;;;;;;;;;;;;;;;;1876371;28;7114;-65
2021/11/19 00:57:28;;;;;;;;;;;;;;;;;;1880649;28;7034;-64
2021/11/19 00:58:26;;;;;;;;;;;;;;;;;;1876058;28;8042;-64
2021/11/19 00:59:27;;;;;;;;;;;;;;;;;;1874769;28;7412;-65
2021/11/19 01:00:28;;;;;;;;;;;;;;;;;;1876334;28;7365;-64
2021/11/19 01:01:30;;;;;;;;;;;;;;;;;;1876545;28;7093;-65
2021/11/19 01:02:28;;;;;;;;;;;;;;;;;;1876571;28;7022;-65
2021/11/19 01:03:26;;;;;;;;;;;;;;;;;;1876242;28;7038;-64
2021/11/19 01:04:23;;;;;;;;;;;;;;;;;;1875967;28;7100;-65
2021/11/19 01:05:21;;;;;;;;;;;;;;;;;;1876080;28;8175;-64
2021/11/19 01:06:19;;;;;;;;;;;;;;;;;;1875280;28;8095;-65
2021/11/19 01:07:18;;;;;;;;;;;;;;;;;;1876148;28;7088;-65
2021/11/19 01:08:16;;;;;;;;;;;;;;;;;;1874241;28;7031;-64
2021/11/19 01:09:18;;;;;;;;;;;;;;;;;;1869423;29;8046;-65
2021/11/19 01:10:22;;;;;;;;;;;;;;;;;;1876278;28;7086;-66
2021/11/19 01:11:20;;;;;;;;;;;;;;;;;;1875590;28;7304;-64
2021/11/19 01:12:20;;;;;;;;;;;;;;;;;;1875369;28;8051;-65
2021/11/19 01:13:18;;;;;;;;;;;;;;;;;;1875111;28;7110;-65
2021/11/19 01:14:20;;;;;;;;;;;;;;;;;;1875410;28;7002;-65
2021/11/19 01:15:32;;;;;;;;;;;;;;;;;;1875006;28;7058;-65
2021/11/19 01:16:35;;;;;;;;;;;;;;;;;;1876033;28;8095;-65
2021/11/19 01:17:39;;;;;;;;;;;;;;;;;;1875759;28;7320;-65
2021/11/19 01:18:42;;;;;;;;;;;;;;;;;;1875441;28;7096;-64
2021/11/19 01:19:48;;;;;;;;;;;;;;;;;;1876022;28;7037;-65
2021/11/19 01:20:54;;;;;;;;;;;;;;;;;;1875819;28;7093;-65
2021/11/19 01:21:57;;;;;;;;;;;;;;;;;;1875988;28;7093;-66
2021/11/19 01:22:57;;;;;;;;;;;;;;;;;;1875899;28;8999;-65
2021/11/19 01:23:55;;;;;;;;;;;;;;;;;;1881440;28;7130;-66
2021/11/19 01:24:53;;;;;;;;;;;;;;;;;;1883372;28;7340;-64
2021/11/19 01:25:53;;;;;;;;;;;;;;;;;;1883434;28;7010;-65
2021/11/19 01:26:51;;;;;;;;;;;;;;;;;;1881818;28;7010;-65
2021/11/19 01:27:49;;;;;;;;;;;;;;;;;;1883477;28;7038;-65
2021/11/19 01:28:49;;;;;;;;;;;;;;;;;;1882994;28;7336;-65
2021/11/19 01:29:47;;;;;;;;;;;;;;;;;;1883053;28;7143;-65
2021/11/19 01:30:47;;;;;;;;;;;;;;;;;;1882933;28;7010;-65
2021/11/19 01:31:53;;;;;;;;;;;;;;;;;;1882419;28;7435;-65
2021/11/19 01:32:51;;;;;;;;;;;;;;;;;;1882206;28;7043;-66
2021/11/19 01:33:48;;;;;;;;;;;;;;;;;;1883092;28;7147;-65
2021/11/19 01:34:46;;;;;;;;;;;;;;;;;;1882988;28;7014;-65
2021/11/19 01:35:44;;;;;;;;;;;;;;;;;;1882415;28;7002;-65
2021/11/19 01:36:42;;;;;;;;;;;;;;;;;;1881371;28;7026;-66
2021/11/19 01:37:40;;;;;;;;;;;;;;;;;;1882793;28;7092;-65
2021/11/19 01:38:40;;;;;;;;;;;;;;;;;;1882278;28;7093;-65
2021/11/19 01:39:39;;;;;;;;;;;;;;;;;;1882400;28;7100;-65
2021/11/19 01:40:40;;;;;;;;;;;;;;;;;;1882593;28;7089;-64
2021/11/19 01:41:43;;;;;;;;;;;;;;;;;;1881923;28;7097;-64
2021/11/19 01:42:43;;;;;;;;;;;;;;;;;;1883139;28;7582;-65
2021/11/19 01:43:42;;;;;;;;;;;;;;;;;;1882881;28;7139;-65
2021/11/19 01:44:54;;;;;;;;;;;;;;;;;;1882522;28;7014;-65
2021/11/19 01:45:54;;;;;;;;;;;;;;;;;;1882977;28;7114;-65
2021/11/19 01:46:53;;;;;;;;;;;;;;;;;;1882848;28;7017;-64
2021/11/19 01:47:53;;;;;;;;;;;;;;;;;;1880796;28;7382;-65
2021/11/19 01:48:52;;;;;;;;;;;;;;;;;;1879462;28;8303;-65
2021/11/19 01:49:50;;;;;;;;;;;;;;;;;;1882620;28;7038;-66
2021/11/19 01:50:50;;;;;;;;;;;;;;;;;;1883182;28;7151;-65
2021/11/19 01:51:57;;;;;;;;;;;;;;;;;;1882866;28;7022;-64
2021/11/19 01:53:01;;;;;;;;;;;;;;;;;;1882335;28;7324;-65
2021/11/19 01:54:01;;;;;;;;;;;;;;;;;;1881734;28;7013;-64
2021/11/19 01:55:12;;;;;;;;;;;;;;;;;;1883389;28;7022;-65
2021/11/19 01:56:35;;;;;;;;;;;;;;;;;;1882902;28;7985;-65
2021/11/19 01:57:36;;;;;;;;;;;;;;;;;;1879078;28;7010;-65
2021/11/19 01:58:45;;;;;;;;;;;;;;;;;;1883226;28;7304;-65
2021/11/19 01:59:46;;;;;;;;;;;;;;;;;;1882562;28;7070;-65
2021/11/19 02:00:47;;;;;;;;;;;;;;;;;;1882990;28;7327;-65
2021/11/19 02:01:49;;;;;;;;;;;;;;;;;;1883333;28;7034;-65
2021/11/19 02:02:49;;;;;;;;;;;;;;;;;;1882416;28;7093;-65
2021/11/19 02:03:51;;;;;;;;;;;;;;;;;;1883194;28;7566;-65
2021/11/19 02:04:57;;;;;;;;;;;;;;;;;;1882885;28;7034;-65
2021/11/19 02:06:13;;;;;;;;;;;;;;;;;;1882914;28;7324;-65
2021/11/19 02:07:17;;;;;;;;;;;;;;;;;;1881379;28;7042;-64
2021/11/19 02:08:17;;;;;;;;;;;;;;;;;;1882246;28;8060;-65
2021/11/19 02:09:24;;;;;;;;;;;;;;;;;;1875672;28;8023;-66
2021/11/19 02:10:24;;;;;;;;;;;;;;;;;;1876182;28;7010;-64
2021/11/19 02:11:22;;;;;;;;;;;;;;;;;;1882964;28;7348;-65
2021/11/19 02:12:34;;;;;;;;;;;;;;;;;;1882499;28;7037;-65
2021/11/19 02:13:50;;;;;;;;;;;;;;;;;;1882108;28;7203;-65
2021/11/19 02:15:03;;;;;;;;;;;;;;;;;;1882881;28;7101;-65
2021/11/19 02:16:03;;;;;;;;;;;;;;;;;;1883015;28;7117;-65
2021/11/19 02:17:01;;;;;;;;;;;;;;;;;;1883120;28;7009;-65
2021/11/19 02:18:05;;;;;;;;;;;;;;;;;;1882798;28;7050;-64
2021/11/19 02:19:10;;;;;;;;;;;;;;;;;;1882779;28;7013;-64
2021/11/19 02:20:10;;;;;;;;;;;;;;;;;;1883015;28;8103;-65
2021/11/19 02:21:11;;;;;;;;;;;;;;;;;;1882794;28;7129;-65
2021/11/19 02:22:12;;;;;;;;;;;;;;;;;;1882803;28;7006;-65
2021/11/19 02:23:21;;;;;;;;;;;;;;;;;;1882810;28;7109;-64
2021/11/19 02:24:24;;;;;;;;;;;;;;;;;;1875449;28;7149;-66
2021/11/19 02:25:30;;;;;;;;;;;;;;;;;;1882798;28;7010;-65
2021/11/19 02:26:30;;;;;;;;;;;;;;;;;;1881611;28;7349;-64
2021/11/19 02:27:32;;;;;;;;;;;;;;;;;;1883168;28;7006;-65
2021/11/19 02:28:32;;;;;;;;;;;;;;;;;;1883667;28;7096;-65
2021/11/19 02:29:33;;;;;;;;;;;;;;;;;;1883240;28;7002;-65
2021/11/19 02:30:33;;;;;;;;;;;;;;;;;;1882617;28;7042;-64
2021/11/19 02:31:43;;;;;;;;;;;;;;;;;;1882408;28;7010;-65
2021/11/19 02:32:45;;;;;;;;;;;;;;;;;;1882450;28;7280;-65
2021/11/19 02:33:45;;;;;;;;;;;;;;;;;;1882041;28;7104;-65
2021/11/19 02:34:43;;;;;;;;;;;;;;;;;;1882378;28;7092;-65
2021/11/19 02:35:46;;;;;;;;;;;;;;;;;;1882531;28;7156;-65
2021/11/19 02:37:03;;;;;;;;;;;;;;;;;;1882187;28;7010;-65
2021/11/19 02:38:04;;;;;;;;;;;;;;;;;;1882533;28;7120;-65
2021/11/19 02:39:06;;;;;;;;;;;;;;;;;;1881396;28;7030;-66
2021/11/19 02:40:12;;;;;;;;;;;;;;;;;;1882714;28;7013;-64
2021/11/19 02:41:10;;;;;;;;;;;;;;;;;;1882208;28;7973;-65
2021/11/19 02:42:10;;;;;;;;;;;;;;;;;;1882281;28;8106;-65
2021/11/19 02:43:15;;;;;;;;;;;;;;;;;;1882256;28;7014;-64
2021/11/19 02:44:15;;;;;;;;;;;;;;;;;;1875211;28;7116;-65
2021/11/19 02:45:15;;;;;;;;;;;;;;;;;;1876009;28;7315;-65
2021/11/19 02:46:21;;;;;;;;;;;;;;;;;;1875383;29;7005;-64
2021/11/19 02:47:21;;;;;;;;;;;;;;;;;;1875495;28;7219;-64
2021/11/19 02:48:21;;;;;;;;;;;;;;;;;;1881378;28;7014;-65
2021/11/19 02:49:19;;;;;;;;;;;;;;;;;;1881087;28;7097;-64
2021/11/19 02:50:19;;;;;;;;;;;;;;;;;;1882714;28;7372;-65
2021/11/19 02:51:16;;;;;;;;;;;;;;;;;;1882840;28;7490;-63
2021/11/19 02:52:20;;;;;;;;;;;;;;;;;;1874618;29;8127;-64
2021/11/19 02:53:18;;;;;;;;;;;;;;;;;;1875832;28;7070;-65
2021/11/19 02:54:18;;;;;;;;;;;;;;;;;;1882981;28;7013;-65
2021/11/19 02:55:18;;;;;;;;;;;;;;;;;;1882994;28;7029;-65
2021/11/19 02:56:18;;;;;;;;;;;;;;;;;;1882932;28;7120;-65
2021/11/19 02:57:16;;;;;;;;;;;;;;;;;;1881387;28;7006;-65
2021/11/19 02:58:18;;;;;;;;;;;;;;;;;;1882769;28;7018;-65
2021/11/19 02:59:17;;;;;;;;;;;;;;;;;;1875384;28;7093;-64
2021/11/19 03:00:23;;;;;;;;;;;;;;;;;;1876267;28;7006;-66
2021/11/19 03:01:21;;;;;;;;;;;;;;;;;;1876951;28;7955;-66
2021/11/19 03:02:20;;;;;;;;;;;;;;;;;;1884019;28;7093;-65
2021/11/19 03:03:18;;;;;;;;;;;;;;;;;;1884339;28;7042;-65
2021/11/19 03:04:19;;;;;;;;;;;;;;;;;;1884716;28;7100;-64
2021/11/19 03:05:18;;;;;;;;;;;;;;;;;;1884816;28;7101;-64
2021/11/19 03:06:16;;;;;;;;;;;;;;;;;;1884409;28;7042;-65
2021/11/19 03:07:15;;;;;;;;;;;;;;;;;;1876965;28;7089;-66
2021/11/19 03:08:13;;;;;;;;;;;;;;;;;;1884051;28;7078;-64
2021/11/19 03:09:12;;;;;;;;;;;;;;;;;;1884134;28;7013;-64
2021/11/19 03:10:13;;;;;;;;;;;;;;;;;;1884245;28;7002;-66
2021/11/19 03:11:12;;;;;;;;;;;;;;;;;;1883961;28;7038;-64
2021/11/19 03:12:11;;;;;;;;;;;;;;;;;;1884348;28;7042;-64
2021/11/19 03:13:10;;;;;;;;;;;;;;;;;;1884644;28;8023;-65
2021/11/19 03:14:09;;;;;;;;;;;;;;;;;;1884365;28;7128;-65
2021/11/19 03:15:10;;;;;;;;;;;;;;;;;;1884306;28;7057;-65
2021/11/19 03:16:07;;;;;;;;;;;;;;;;;;1883834;28;7093;-64
2021/11/19 03:17:06;;;;;;;;;;;;;;;;;;1884215;28;7038;-64
2021/11/19 03:18:05;;;;;;;;;;;;;;;;;;1884375;28;7009;-66
2021/11/19 03:19:03;;;;;;;;;;;;;;;;;;1884062;28;7354;-66
2021/11/19 03:20:01;;;;;;;;;;;;;;;;;;1884087;28;7117;-66
2021/11/19 03:21:01;;;;;;;;;;;;;;;;;;1884279;28;7006;-64
2021/11/19 03:21:58;;;;;;;;;;;;;;;;;;1884310;28;7022;-65
2021/11/19 03:22:57;;;;;;;;;;;;;;;;;;1884229;28;7411;-65
2021/11/19 03:23:57;;;;;;;;;;;;;;;;;;1883813;28;7049;-66
2021/11/19 03:24:54;;;;;;;;;;;;;;;;;;1883242;28;7127;-65
2021/11/19 03:25:52;;;;;;;;;;;;;;;;;;1884025;28;7013;-64
2021/11/19 03:26:51;;;;;;;;;;;;;;;;;;1882393;28;7009;-65
2021/11/19 03:27:49;;;;;;;;;;;;;;;;;;1884057;28;7014;-65
2021/11/19 03:28:46;;;;;;;;;;;;;;;;;;1884437;28;7010;-65
2021/11/19 03:29:45;;;;;;;;;;;;;;;;;;1876048;28;7140;-66
2021/11/19 03:30:45;;;;;;;;;;;;;;;;;;1875415;28;7093;-65
2021/11/19 03:31:43;;;;;;;;;;;;;;;;;;1879480;28;7053;-66
2021/11/19 03:32:41;;;;;;;;;;;;;;;;;;1883548;28;7163;-65
2021/11/19 03:33:41;;;;;;;;;;;;;;;;;;1883345;28;7058;-66
2021/11/19 03:34:38;;;;;;;;;;;;;;;;;;1883093;28;7014;-65
2021/11/19 03:35:36;;;;;;;;;;;;;;;;;;1883473;28;7100;-65
2021/11/19 03:36:33;;;;;;;;;;;;;;;;;;1883967;28;7089;-65
2021/11/19 03:37:30;;;;;;;;;;;;;;;;;;1883448;28;7093;-65
2021/11/19 03:38:30;;;;;;;;;;;;;;;;;;1883145;28;7721;-65
2021/11/19 03:39:29;;;;;;;;;;;;;;;;;;1883413;28;7115;-65
2021/11/19 03:40:29;;;;;;;;;;;;;;;;;;1883380;28;7093;-65
2021/11/19 03:41:30;;;;;;;;;;;;;;;;;;1883215;28;7010;-66
2021/11/19 03:42:28;;;;;;;;;;;;;;;;;;1883366;28;7109;-66
2021/11/19 03:43:28;;;;;;;;;;;;;;;;;;1883565;28;7101;-65
2021/11/19 03:44:33;;;;;;;;;;;;;;;;;;1883575;28;7161;-64
2021/11/19 03:45:35;;;;;;;;;;;;;;;;;;1884521;28;7038;-65
2021/11/19 03:46:37;;;;;;;;;;;;;;;;;;1884248;28;7042;-65
2021/11/19 03:47:37;;;;;;;;;;;;;;;;;;1884127;28;7121;-65
2021/11/19 03:48:35;;;;;;;;;;;;;;;;;;1882234;28;7030;-65
2021/11/19 03:49:33;;;;;;;;;;;;;;;;;;1883196;28;8008;-64
2021/11/19 03:50:42;;;;;;;;;;;;;;;;;;1883736;28;7100;-65
2021/11/19 03:51:45;;;;;;;;;;;;;;;;;;1884137;28;7010;-64
2021/11/19 03:52:43;;;;;;;;;;;;;;;;;;1883628;28;7018;-65
2021/11/19 03:53:41;;;;;;;;;;;;;;;;;;1884210;28;7042;-64
2021/11/19 03:54:40;;;;;;;;;;;;;;;;;;1883672;28;7010;-65
2021/11/19 03:55:39;;;;;;;;;;;;;;;;;;1884346;28;7973;-65
2021/11/19 03:56:37;;;;;;;;;;;;;;;;;;1883860;28;7128;-65
2021/11/19 03:57:35;;;;;;;;;;;;;;;;;;1884122;28;7209;-65
2021/11/19 03:58:35;;;;;;;;;;;;;;;;;;1883910;28;7054;-65
2021/11/19 03:59:32;;;;;;;;;;;;;;;;;;1883829;28;7269;-65
2021/11/19 04:00:38;;;;;;;;;;;;;;;;;;1883550;28;7096;-64
2021/11/19 04:01:39;;;;;;;;;;;;;;;;;;1883023;28;7092;-64
2021/11/19 04:02:36;;;;;;;;;;;;;;;;;;1883654;28;7041;-66
2021/11/19 04:03:34;;;;;;;;;;;;;;;;;;1883648;28;7088;-64
2021/11/19 04:04:33;;;;;;;;;;;;;;;;;;1883057;28;7320;-65
2021/11/19 04:05:33;;;;;;;;;;;;;;;;;;1883855;28;7762;-65
2021/11/19 04:06:30;;;;;;;;;;;;;;;;;;1882502;28;7023;-65
2021/11/19 04:07:28;;;;;;;;;;;;;;;;;;1883404;28;7021;-65
2021/11/19 04:08:25;;;;;;;;;;;;;;;;;;1883245;28;7092;-65
2021/11/19 04:09:23;;;;;;;;;;;;;;;;;;1880160;28;7021;-64
2021/11/19 04:10:21;;;;;;;;;;;;;;;;;;1877589;28;8031;-66
2021/11/19 04:11:19;;;;;;;;;;;;;;;;;;1883853;28;7112;-64
2021/11/19 04:12:20;;;;;;;;;;;;;;;;;;1883832;28;7231;-65
2021/11/19 04:13:18;;;;;;;;;;;;;;;;;;1882664;28;7039;-64
2021/11/19 04:14:16;;;;;;;;;;;;;;;;;;1876451;28;7290;-65
2021/11/19 04:15:17;;;;;;;;;;;;;;;;;;1876500;28;7002;-65
2021/11/19 04:16:20;;;;;;;;;;;;;;;;;;1883457;28;7097;-65
2021/11/19 04:17:18;;;;;;;;;;;;;;;;;;1883622;28;7108;-64
2021/11/19 04:18:15;;;;;;;;;;;;;;;;;;1882854;28;7092;-65
2021/11/19 04:19:14;;;;;;;;;;;;;;;;;;1883488;28;7029;-65
2021/11/19 04:20:12;;;;;;;;;;;;;;;;;;1884145;28;7096;-66
2021/11/19 04:21:10;;;;;;;;;;;;;;;;;;1883233;28;7002;-65
2021/11/19 04:22:10;;;;;;;;;;;;;;;;;;1883979;28;7153;-64
2021/11/19 04:23:07;;;;;;;;;;;;;;;;;;1883185;28;7093;-64
2021/11/19 04:24:06;;;;;;;;;;;;;;;;;;1883650;28;7013;-65
2021/11/19 04:25:05;;;;;;;;;;;;;;;;;;1883928;28;7005;-65
2021/11/19 04:26:05;;;;;;;;;;;;;;;;;;1882349;28;7006;-64
2021/11/19 04:27:03;;;;;;;;;;;;;;;;;;1883718;28;7005;-65
2021/11/19 04:28:01;;;;;;;;;;;;;;;;;;1883615;28;7026;-64
2021/11/19 04:28:59;;;;;;;;;;;;;;;;;;1883413;28;7038;-64
2021/11/19 04:29:56;;;;;;;;;;;;;;;;;;1883405;28;7042;-65
2021/11/19 04:30:55;;;;;;;;;;;;;;;;;;1883016;28;7361;-65
2021/11/19 04:31:53;;;;;;;;;;;;;;;;;;1881689;28;7010;-65
2021/11/19 04:32:51;;;;;;;;;;;;;;;;;;1883101;28;7137;-66
2021/11/19 04:33:49;;;;;;;;;;;;;;;;;;1882982;28;7010;-65
2021/11/19 04:34:48;;;;;;;;;;;;;;;;;;1883173;28;7010;-66
2021/11/19 04:35:47;;;;;;;;;;;;;;;;;;1883426;28;7021;-65
2021/11/19 04:36:44;;;;;;;;;;;;;;;;;;1882920;28;7013;-65
2021/11/19 04:37:42;;;;;;;;;;;;;;;;;;1883360;28;7692;-65
2021/11/19 04:38:40;;;;;;;;;;;;;;;;;;1880255;28;7805;-65
2021/11/19 04:39:37;;;;;;;;;;;;;;;;;;1883373;28;7006;-64
2021/11/19 04:40:35;;;;;;;;;;;;;;;;;;1882999;28;8106;-65
2021/11/19 04:41:33;;;;;;;;;;;;;;;;;;1882084;28;7127;-64
2021/11/19 04:42:31;;;;;;;;;;;;;;;;;;1882618;28;7157;-65
2021/11/19 04:43:29;;;;;;;;;;;;;;;;;;1877918;28;8112;-64
2021/11/19 04:44:28;;;;;;;;;;;;;;;;;;1881255;28;7359;-66
2021/11/19 04:45:27;;;;;;;;;;;;;;;;;;1882651;28;7646;-64
2021/11/19 04:46:25;;;;;;;;;;;;;;;;;;1883156;28;7005;-65
2021/11/19 04:47:22;;;;;;;;;;;;;;;;;;1882810;28;7014;-64
2021/11/19 04:48:21;;;;;;;;;;;;;;;;;;1878362;28;8040;-64
2021/11/19 04:49:18;;;;;;;;;;;;;;;;;;1885409;28;7149;-65
2021/11/19 04:50:21;;;;;;;;;;;;;;;;;;1883522;28;8159;-65
2021/11/19 04:51:20;;;;;;;;;;;;;;;;;;1883561;28;7042;-65
2021/11/19 04:52:18;;;;;;;;;;;;;;;;;;1883293;28;7006;-66
2021/11/19 04:53:18;;;;;;;;;;;;;;;;;;1883427;28;7375;-66
2021/11/19 04:54:17;;;;;;;;;;;;;;;;;;1881622;28;7006;-65
2021/11/19 04:55:16;;;;;;;;;;;;;;;;;;1883568;28;7036;-65
2021/11/19 04:56:15;;;;;;;;;;;;;;;;;;1874916;28;7005;-65
2021/11/19 04:57:12;;;;;;;;;;;;;;;;;;1883314;28;8062;-65
2021/11/19 04:58:10;;;;;;;;;;;;;;;;;;1884058;28;7128;-66
2021/11/19 04:59:09;;;;;;;;;;;;;;;;;;1883469;28;8050;-65
2021/11/19 05:00:09;;;;;;;;;;;;;;;;;;1883577;28;7006;-65
2021/11/19 05:01:09;;;;;;;;;;;;;;;;;;1883433;28;7022;-65
2021/11/19 05:02:09;;;;;;;;;;;;;;;;;;1883702;28;8076;-65
2021/11/19 05:03:08;;;;;;;;;;;;;;;;;;1882660;28;7038;-64
2021/11/19 05:04:06;;;;;;;;;;;;;;;;;;1883410;28;7010;-65
2021/11/19 05:05:04;;;;;;;;;;;;;;;;;;1883442;28;7105;-65
2021/11/19 05:06:02;;;;;;;;;;;;;;;;;;1883520;28;7062;-65
2021/11/19 05:07:00;;;;;;;;;;;;;;;;;;1883919;28;7042;-65
2021/11/19 05:07:57;;;;;;;;;;;;;;;;;;1883610;28;7114;-65
2021/11/19 05:08:54;;;;;;;;;;;;;;;;;;1883564;28;7117;-64
2021/11/19 05:09:52;;;;;;;;;;;;;;;;;;1882209;28;7010;-65
2021/11/19 05:10:52;;;;;;;;;;;;;;;;;;1883280;28;7006;-66
2021/11/19 05:11:53;;;;;;;;;;;;;;;;;;1882249;28;7030;-65
2021/11/19 05:12:53;;;;;;;;;;;;;;;;;;1881629;28;7834;-65
2021/11/19 05:13:51;;;;;;;;;;;;;;;;;;1882642;28;7802;-66
2021/11/19 05:14:49;;;;;;;;;;;;;;;;;;1883365;28;7332;-65
2021/11/19 05:15:47;;;;;;;;;;;;;;;;;;1883084;28;7368;-65
2021/11/19 05:16:45;;;;;;;;;;;;;;;;;;1883375;28;8200;-64
2021/11/19 05:17:43;;;;;;;;;;;;;;;;;;1882327;28;8167;-65
2021/11/19 05:18:42;;;;;;;;;;;;;;;;;;1883383;28;7006;-65
2021/11/19 05:19:40;;;;;;;;;;;;;;;;;;1883689;28;7009;-65
2021/11/19 05:20:37;;;;;;;;;;;;;;;;;;1883647;28;7204;-65
2021/11/19 05:21:35;;;;;;;;;;;;;;;;;;1883781;28;8036;-64
2021/11/19 05:22:33;;;;;;;;;;;;;;;;;;1882902;28;7388;-65
2021/11/19 05:23:30;;;;;;;;;;;;;;;;;;1883421;28;7045;-65
2021/11/19 05:24:28;;;;;;;;;;;;;;;;;;1882080;28;7030;-64
2021/11/19 05:25:27;;;;;;;;;;;;;;;;;;1883430;28;7093;-64
2021/11/19 05:26:28;;;;;;;;;;;;;;;;;;1883267;28;7100;-65
2021/11/19 05:27:26;;;;;;;;;;;;;;;;;;1883483;28;7005;-65
2021/11/19 05:28:24;;;;;;;;;;;;;;;;;;1883421;28;7134;-65
2021/11/19 05:29:22;;;;;;;;;;;;;;;;;;1883114;28;7144;-64
2021/11/19 05:30:20;;;;;;;;;;;;;;;;;;1874336;28;7005;-65
2021/11/19 05:31:18;;;;;;;;;;;;;;;;;;1879503;28;7006;-65
2021/11/19 05:32:16;;;;;;;;;;;;;;;;;;1883041;28;7369;-65
2021/11/19 05:33:16;;;;;;;;;;;;;;;;;;1875915;28;7013;-65
2021/11/19 05:34:15;;;;;;;;;;;;;;;;;;1875754;28;7017;-65
2021/11/19 05:35:14;;;;;;;;;;;;;;;;;;1883089;28;7481;-64
2021/11/19 05:36:11;;;;;;;;;;;;;;;;;;1882656;28;7034;-65
2021/11/19 05:37:09;;;;;;;;;;;;;;;;;;1883238;28;7002;-65
2021/11/19 05:38:07;;;;;;;;;;;;;;;;;;1883152;28;7010;-65
2021/11/19 05:39:05;;;;;;;;;;;;;;;;;;1882894;28;7038;-66
2021/11/19 05:40:03;;;;;;;;;;;;;;;;;;1883077;28;7009;-65
2021/11/19 05:41:04;;;;;;;;;;;;;;;;;;1882650;28;7006;-65
2021/11/19 05:42:03;;;;;;;;;;;;;;;;;;1882983;28;7006;-66
2021/11/19 05:43:00;;;;;;;;;;;;;;;;;;1882489;28;7006;-65
2021/11/19 05:43:58;;;;;;;;;;;;;;;;;;1883495;28;7002;-65
2021/11/19 05:44:56;;;;;;;;;;;;;;;;;;1882723;28;8005;-65
2021/11/19 05:45:53;;;;;;;;;;;;;;;;;;1883595;28;7226;-65
2021/11/19 05:46:51;;;;;;;;;;;;;;;;;;1883190;28;7030;-64
2021/11/19 05:47:48;;;;;;;;;;;;;;;;;;1882933;28;7013;-65
2021/11/19 05:48:47;;;;;;;;;;;;;;;;;;1882394;28;8100;-66
2021/11/19 05:49:45;;;;;;;;;;;;;;;;;;1882912;28;7042;-65
2021/11/19 05:50:44;;;;;;;;;;;;;;;;;;1883766;28;7006;-64
2021/11/19 05:51:44;;;;;;;;;;;;;;;;;;1883627;28;7001;-65
2021/11/19 05:52:41;;;;;;;;;;;;;;;;;;1883723;28;7006;-65
2021/11/19 05:53:39;;;;;;;;;;;;;;;;;;1883052;28;7040;-65
2021/11/19 05:54:37;;;;;;;;;;;;;;;;;;1883467;28;7010;-65
2021/11/19 05:55:38;;;;;;;;;;;;;;;;;;1881486;28;7192;-64
2021/11/19 05:56:36;;;;;;;;;;;;;;;;;;1882769;28;7117;-65
2021/11/19 05:57:37;;;;;;;;;;;;;;;;;;1878387;28;7010;-65
2021/11/19 05:58:36;;;;;;;;;;;;;;;;;;1883185;28;7010;-64
2021/11/19 05:59:35;;;;;;;;;;;;;;;;;;1883888;28;7113;-66
2021/11/19 06:00:39;;;;;;;;;;;;;;;;;;1883856;28;8075;-66
2021/11/19 06:01:36;;;;;;;;;;;;;;;;;;1882150;28;7117;-65
2021/11/19 06:02:34;;;;;;;;;;;;;;;;;;1883523;28;7109;-65
2021/11/19 06:03:33;;;;;;;;;;;;;;;;;;1883006;28;7097;-65
2021/11/19 06:04:30;;;;;;;;;;;;;;;;;;1883123;28;7010;-64
2021/11/19 06:05:28;;;;;;;;;;;;;;;;;;1883077;28;8071;-64
2021/11/19 06:06:25;;;;;;;;;;;;;;;;;;1882790;28;7384;-65
2021/11/19 06:07:25;;;;;;;;;;;;;;;;;;1883464;28;8032;-65
2021/11/19 06:08:22;;;;;;;;;;;;;;;;;;1883251;28;7372;-65
2021/11/19 06:09:27;;;;;;;;;;;;;;;;;;1883549;28;7148;-66
2021/11/19 06:10:28;;;;;;;;;;;;;;;;;;1882838;28;7113;-64
2021/11/19 06:11:28;;;;;;;;;;;;;;;;;;1883257;28;8036;-65
2021/11/19 06:12:28;;;;;;;;;;;;;;;;;;1881899;28;7006;-65
2021/11/19 06:13:45;;;;;;;;;;;;;;;;;;1882347;28;7018;-66
2021/11/19 06:14:46;;;;;;;;;;;;;;;;;;1883051;28;8055;-64
2021/11/19 06:15:46;;;;;;;;;;;;;;;;;;1883093;28;7014;-64
2021/11/19 06:16:48;;;;;;;;;;;;;;;;;;1882807;28;7001;-65
2021/11/19 06:17:48;;;;;;;;;;;;;;;;;;1882993;28;7305;-65
2021/11/19 06:18:49;;;;;;;;;;;;;;;;;;1882734;28;7192;-65
2021/11/19 06:19:49;;;;;;;;;;;;;;;;;;1883270;28;7109;-65
2021/11/19 06:20:49;;;;;;;;;;;;;;;;;;1882253;28;7046;-65
2021/11/19 06:21:52;;;;;;;;;;;;;;;;;;1882549;28;8052;-65
2021/11/19 06:22:52;;;;;;;;;;;;;;;;;;1883050;28;7988;-66
2021/11/19 06:23:52;;;;;;;;;;;;;;;;;;1882814;28;7010;-65
2021/11/19 06:24:52;;;;;;;;;;;;;;;;;;1883200;28;7097;-64
2021/11/19 06:25:50;;;;;;;;;;;;;;;;;;1883308;28;7006;-64
2021/11/19 06:26:49;;;;;;;;;;;;;;;;;;1882814;28;7022;-66
2021/11/19 06:27:48;;;;;;;;;;;;;;;;;;1883288;28;7113;-64
2021/11/19 06:28:47;;;;;;;;;;;;;;;;;;1882747;28;8099;-65
2021/11/19 06:29:45;;;;;;;;;;;;;;;;;;1883822;28;7106;-64
2021/11/19 06:30:42;;;;;;;;;;;;;;;;;;1882854;28;8011;-66
2021/11/19 06:31:43;;;;;;;;;;;;;;;;;;1881969;28;7397;-65
2021/11/19 06:32:41;;;;;;;;;;;;;;;;;;1881426;28;7010;-65
2021/11/19 06:33:38;;;;;;;;;;;;;;;;;;1882518;28;7051;-65
2021/11/19 06:34:36;;;;;;;;;;;;;;;;;;1883209;28;7025;-65
2021/11/19 06:35:33;;;;;;;;;;;;;;;;;;1884574;28;7889;-65
2021/11/19 06:36:31;;;;;;;;;;;;;;;;;;1882914;28;7416;-65
2021/11/19 06:37:47;;;;;;;;;;;;;;;;;;1884277;28;7129;-64
2021/11/19 06:38:46;;;;;;;;;;;;;;;;;;1883238;28;8023;-65
2021/11/19 06:39:43;;;;;;;;;;;;;;;;;;1884453;28;7002;-65
2021/11/19 06:40:41;;;;;;;;;;;;;;;;;;1883083;28;7116;-65
2021/11/19 06:41:38;;;;;;;;;;;;;;;;;;1883672;28;7148;-64
2021/11/19 06:42:36;;;;;;;;;;;;;;;;;;1884219;28;7340;-65
2021/11/19 06:43:34;;;;;;;;;;;;;;;;;;1883968;28;7006;-64
2021/11/19 06:44:31;;;;;;;;;;;;;;;;;;1884115;28;7010;-65
2021/11/19 06:45:29;;;;;;;;;;;;;;;;;;1884185;28;7093;-65
2021/11/19 06:46:27;;;;;;;;;;;;;;;;;;1885067;28;7042;-64
2021/11/19 06:47:25;;;;;;;;;;;;;;;;;;1884204;28;7005;-65
2021/11/19 06:48:22;;;;;;;;;;;;;;;;;;1883385;28;7304;-65
2021/11/19 06:49:19;;;;;;;;;;;;;;;;;;1882249;28;7101;-65
2021/11/19 06:50:19;;;;;;;;;;;;;;;;;;1884186;28;7001;-66
2021/11/19 06:51:18;;;;;;;;;;;;;;;;;;1884214;28;7097;-65
2021/11/19 06:52:15;;;;;;;;;;;;;;;;;;1883049;28;7006;-65
2021/11/19 06:53:13;;;;;;;;;;;;;;;;;;1884883;28;7028;-66
2021/11/19 06:54:11;;;;;;;;;;;;;;;;;;1884804;28;7001;-65
2021/11/19 06:55:09;;;;;;;;;;;;;;;;;;1884432;28;7002;-65